createdAt,value
2023-04-23T00:00:07.129Z,67.44
2023-04-23T00:02:39.999Z,67.75
2023-04-23T00:05:08.180Z,68.10
2023-04-23T00:07:36.345Z,68.33
2023-04-23T00:10:05.736Z,68.10
2023-04-23T00:12:33.414Z,68.33
2023-04-23T00:15:01.741Z,69.72
2023-04-23T00:17:29.008Z,69.67
2023-04-23T00:19:56.253Z,69.30
2023-04-23T00:22:23.446Z,70.00
2023-04-23T00:24:50.869Z,69.91
2023-04-23T00:27:18.268Z,69.71
2023-04-23T00:29:46.509Z,69.21
2023-04-23T00:32:14.891Z,69.69
2023-04-23T00:34:42.654Z,70.16
2023-04-23T00:37:10.249Z,70.54
2023-04-23T00:39:38.824Z,70.58
2023-04-23T00:42:12.409Z,70.96
2023-04-23T00:44:40.865Z,71.40
2023-04-23T00:47:08.806Z,71.53
2023-04-23T00:49:36.857Z,71.79
2023-04-23T00:52:04.140Z,71.88
2023-04-23T00:54:31.643Z,72.59
2023-04-23T00:56:59.524Z,72.45
2023-04-23T00:59:28.879Z,72.89
2023-04-23T01:01:56.777Z,73.07
2023-04-23T01:04:24.800Z,73.18
2023-04-23T01:06:54.669Z,73.45
2023-04-23T01:09:22.635Z,72.83
2023-04-23T01:11:51.023Z,73.07
2023-04-23T01:14:18.335Z,73.46
2023-04-23T01:16:47.122Z,73.58
2023-04-23T01:19:16.204Z,74.60
2023-04-23T01:21:44.056Z,74.53
2023-04-23T01:24:11.965Z,74.42
2023-04-23T01:26:40.754Z,75.47
2023-04-23T01:29:09.963Z,76.19
2023-04-23T01:31:37.437Z,76.59
2023-04-23T01:34:05.258Z,76.19
2023-04-23T01:36:33.316Z,76.58
2023-04-23T01:39:00.650Z,77.30
2023-04-23T01:41:28.905Z,76.63
2023-04-23T01:43:57.480Z,76.94
2023-04-23T01:46:25.243Z,77.45
2023-04-23T01:48:52.570Z,77.46
2023-04-23T01:51:20.282Z,77.47
2023-04-23T01:53:47.439Z,78.46
2023-04-23T01:56:16.408Z,78.14
2023-04-23T01:58:44.209Z,78.96
2023-04-23T02:01:11.729Z,79.64
2023-04-23T02:03:39.179Z,79.36
2023-04-23T02:06:06.823Z,79.26
2023-04-23T02:08:34.091Z,79.64
2023-04-23T02:11:01.427Z,79.04
2023-04-23T02:13:28.622Z,78.92
2023-04-23T02:15:56.017Z,79.41
2023-04-23T02:18:23.451Z,79.27
2023-04-23T02:20:51.023Z,79.07
2023-04-23T02:23:18.355Z,78.97
2023-04-23T02:25:46.098Z,78.69
2023-04-23T02:28:13.518Z,79.27
2023-04-23T02:30:46.720Z,79.21
2023-04-23T02:33:14.219Z,79.98
2023-04-23T02:35:41.576Z,80.48
2023-04-23T02:38:08.880Z,80.97
2023-04-23T02:40:36.631Z,81.44
2023-04-23T02:43:03.992Z,82.04
2023-04-23T02:45:31.858Z,82.65
2023-04-23T02:47:59.802Z,83.12
2023-04-23T02:50:27.199Z,83.36
2023-04-23T02:52:54.520Z,82.55
2023-04-23T02:55:21.905Z,82.50
2023-04-23T02:57:49.101Z,83.42
2023-04-23T03:00:17.050Z,83.67
2023-04-23T03:02:45.460Z,84.24
2023-04-23T03:05:12.961Z,84.42
2023-04-23T03:07:40.869Z,84.65
2023-04-23T03:10:08.807Z,84.56
2023-04-23T03:12:36.436Z,84.12
2023-04-23T03:15:04.088Z,83.92
2023-04-23T03:17:33.463Z,84.32
2023-04-23T03:20:01.333Z,83.67
2023-04-23T03:22:29.031Z,85.09
2023-04-23T03:24:56.506Z,85.43
2023-04-23T03:27:23.798Z,86.47
2023-04-23T03:29:51.203Z,86.48
2023-04-23T03:32:18.591Z,87.37
2023-04-23T03:34:45.936Z,87.30
2023-04-23T03:37:13.619Z,87.54
2023-04-23T03:39:41.409Z,88.31
2023-04-23T03:42:09.256Z,88.13
2023-04-23T03:44:38.326Z,88.13
2023-04-23T03:47:06.225Z,87.71
2023-04-23T03:49:34.811Z,87.45
2023-04-23T03:52:02.411Z,88.60
2023-04-23T03:54:31.466Z,88.51
2023-04-23T03:57:09.877Z,88.94
2023-04-23T03:59:43.878Z,88.34
2023-04-23T04:02:11.556Z,88.78
2023-04-23T04:04:39.099Z,89.34
2023-04-23T04:07:07.723Z,90.56
2023-04-23T04:09:35.008Z,90.03
2023-04-23T04:12:02.698Z,89.18
2023-04-23T04:14:31.581Z,88.43
2023-04-23T04:16:58.933Z,89.14
2023-04-23T04:19:26.164Z,89.41
2023-04-23T04:21:53.408Z,90.25
2023-04-23T04:24:24.941Z,90.16
2023-04-23T04:26:54.050Z,90.63
2023-04-23T04:29:21.350Z,90.27
2023-04-23T04:31:48.940Z,90.44
2023-04-23T04:34:17.950Z,90.43
2023-04-23T04:36:45.715Z,90.85
2023-04-23T04:39:14.789Z,91.58
2023-04-23T04:41:42.925Z,91.15
2023-04-23T04:44:10.155Z,90.55
2023-04-23T04:46:40.601Z,90.53
2023-04-23T04:49:08.973Z,89.55
2023-04-23T04:51:40.972Z,91.10
2023-04-23T04:54:08.414Z,91.04
2023-04-23T04:56:35.688Z,90.60
2023-04-23T04:59:04.037Z,90.05
2023-04-23T05:01:32.500Z,89.41
2023-04-23T05:04:00.045Z,89.62
2023-04-23T05:06:28.814Z,89.45
2023-04-23T05:08:56.136Z,88.71
2023-04-23T05:11:23.384Z,88.26
2023-04-23T05:13:51.524Z,87.37
2023-04-23T05:16:19.503Z,87.07
2023-04-23T05:18:47.060Z,87.67
2023-04-23T05:21:15.323Z,87.16
2023-04-23T05:23:42.647Z,86.92
2023-04-23T05:26:10.173Z,87.02
2023-04-23T05:28:37.701Z,85.82
2023-04-23T05:31:05.116Z,85.67
2023-04-23T05:33:39.186Z,86.16
2023-04-23T05:36:14.004Z,86.36
2023-04-23T05:38:41.282Z,86.06
2023-04-23T05:41:08.571Z,86.85
2023-04-23T05:43:35.799Z,87.00
2023-04-23T05:46:04.740Z,86.93
2023-04-23T05:48:32.006Z,86.72
2023-04-23T05:50:59.584Z,87.44
2023-04-23T05:53:28.054Z,87.65
2023-04-23T05:55:55.464Z,87.22
2023-04-23T05:58:23.363Z,86.20
2023-04-23T06:00:50.624Z,85.33
2023-04-23T06:03:18.100Z,85.53
2023-04-23T06:05:45.696Z,86.14
2023-04-23T06:08:12.957Z,86.00
2023-04-23T06:10:40.449Z,85.57
2023-04-23T06:13:07.767Z,85.26
2023-04-23T06:15:36.168Z,86.00
2023-04-23T06:18:03.565Z,86.54
2023-04-23T06:20:30.973Z,86.46
2023-04-23T06:22:58.195Z,86.58
2023-04-23T06:25:25.879Z,86.18
2023-04-23T06:27:54.584Z,86.07
2023-04-23T06:30:25.243Z,85.60
2023-04-23T06:32:53.248Z,85.79
2023-04-23T06:35:20.700Z,85.76
2023-04-23T06:37:48.069Z,86.45
2023-04-23T06:40:15.722Z,86.58
2023-04-23T06:42:43.025Z,87.06
2023-04-23T06:45:33.235Z,88.21
2023-04-23T06:48:00.835Z,87.47
2023-04-23T06:50:28.159Z,87.66
2023-04-23T06:52:56.306Z,88.31
2023-04-23T06:55:26.232Z,89.65
2023-04-23T06:57:53.591Z,90.25
2023-04-23T07:00:21.810Z,89.89
2023-04-23T07:02:49.740Z,90.03
2023-04-23T07:05:17.804Z,89.68
2023-04-23T07:07:45.245Z,91.07
2023-04-23T07:10:12.805Z,91.88
2023-04-23T07:12:41.355Z,90.66
2023-04-23T07:15:09.291Z,90.03
2023-04-23T07:17:36.992Z,90.99
2023-04-23T07:20:06.702Z,91.55
2023-04-23T07:22:34.424Z,92.78
2023-04-23T07:25:02.531Z,93.83
2023-04-23T07:27:29.804Z,94.37
2023-04-23T07:29:58.570Z,93.77
2023-04-23T07:32:28.233Z,93.85
2023-04-23T07:34:58.463Z,94.61
2023-04-23T07:37:25.854Z,94.65
2023-04-23T07:39:53.979Z,94.82
2023-04-23T07:42:21.381Z,94.57
2023-04-23T07:44:48.699Z,94.20
2023-04-23T07:47:15.967Z,94.48
2023-04-23T07:49:43.904Z,95.88
2023-04-23T07:52:11.802Z,95.98
2023-04-23T07:54:39.188Z,95.17
2023-04-23T07:57:06.493Z,96.09
2023-04-23T07:59:33.774Z,95.90
2023-04-23T08:02:01.294Z,96.16
2023-04-23T08:04:28.905Z,95.54
2023-04-23T08:06:56.308Z,96.70
2023-04-23T08:09:23.719Z,96.07
2023-04-23T08:11:51.051Z,94.98
2023-04-23T08:14:18.676Z,95.61
2023-04-23T08:16:46.309Z,96.35
2023-04-23T08:19:13.619Z,96.91
2023-04-23T08:21:40.964Z,95.38
2023-04-23T08:24:08.335Z,94.40
2023-04-23T08:26:36.076Z,94.91
2023-04-23T08:29:05.222Z,95.38
2023-04-23T08:31:32.866Z,94.92
2023-04-23T08:34:00.265Z,94.49
2023-04-23T08:36:27.723Z,92.90
2023-04-23T08:38:54.992Z,93.75
2023-04-23T08:41:24.288Z,93.43
2023-04-23T08:44:18.515Z,91.88
2023-04-23T08:46:46.059Z,91.81
2023-04-23T08:49:17.497Z,91.86
2023-04-23T08:51:53.339Z,91.73
2023-04-23T08:54:28.408Z,91.90
2023-04-23T08:56:58.356Z,92.92
2023-04-23T08:59:30.766Z,93.22
2023-04-23T09:01:59.829Z,93.62
2023-04-23T09:04:28.089Z,93.66
2023-04-23T09:06:56.040Z,93.49
2023-04-23T09:09:23.842Z,93.24
2023-04-23T09:11:53.401Z,92.21
2023-04-23T09:14:25.558Z,92.76
2023-04-23T09:16:53.621Z,94.91
2023-04-23T09:19:21.022Z,95.89
2023-04-23T09:21:49.882Z,94.20
2023-04-23T09:24:17.986Z,92.99
2023-04-23T09:26:46.883Z,92.88
2023-04-23T09:29:19.187Z,92.72
2023-04-23T09:31:47.948Z,92.14
2023-04-23T09:34:19.850Z,92.08
2023-04-23T09:36:52.948Z,91.18
2023-04-23T09:39:22.837Z,91.20
2023-04-23T09:41:54.006Z,89.89
2023-04-23T09:44:26.613Z,89.27
2023-04-23T09:46:54.287Z,88.97
2023-04-23T09:49:21.978Z,87.42
2023-04-23T09:51:49.843Z,88.06
2023-04-23T09:54:26.049Z,87.24
2023-04-23T09:56:58.776Z,86.06
2023-04-23T10:02:02.611Z,83.64
2023-04-23T10:04:30.244Z,85.02
2023-04-23T10:07:17.393Z,84.88
2023-04-23T10:09:46.404Z,85.23
2023-04-23T10:14:47.009Z,83.50
2023-04-23T10:17:14.786Z,83.14
2023-04-23T10:19:43.469Z,83.99
2023-04-23T10:22:19.630Z,83.18
2023-04-23T10:24:53.042Z,82.18
2023-04-23T10:29:53.755Z,81.27
2023-04-23T10:32:21.492Z,80.48
2023-04-23T10:34:48.865Z,80.72
2023-04-23T10:37:19.482Z,80.82
2023-04-23T10:39:54.418Z,81.49
2023-04-23T10:42:22.487Z,81.45
2023-04-23T10:44:59.544Z,80.45
2023-04-23T10:47:32.210Z,79.77
2023-04-23T10:50:23.601Z,79.02
2023-04-23T10:52:53.757Z,79.55
2023-04-23T10:55:26.388Z,80.15
2023-04-23T10:58:05.185Z,79.58
2023-04-23T11:00:41.456Z,78.76
2023-04-23T11:03:34.585Z,78.79
2023-04-23T11:06:04.429Z,78.20
2023-04-23T11:08:32.634Z,79.27
2023-04-23T11:11:01.618Z,79.85
2023-04-23T11:13:30.053Z,79.14
2023-04-23T11:16:18.239Z,78.92
2023-04-23T11:19:11.371Z,79.16
2023-04-23T11:22:00.935Z,80.19
2023-04-23T11:24:37.035Z,80.16
2023-04-23T11:27:11.826Z,80.31
2023-04-23T11:29:41.058Z,81.05
2023-04-23T11:32:13.528Z,81.56
2023-04-23T11:34:43.235Z,82.77
2023-04-23T11:37:12.198Z,83.34
2023-04-23T11:39:41.585Z,83.25
2023-04-23T11:42:14.108Z,86.03
2023-04-23T11:44:42.920Z,87.13
2023-04-23T11:47:12.517Z,87.72
2023-04-23T11:49:41.497Z,89.02
2023-04-23T11:52:10.290Z,88.96
2023-04-23T11:54:40.483Z,90.59
2023-04-23T11:57:08.567Z,90.59
2023-04-23T11:59:36.045Z,91.22
2023-04-23T12:02:03.448Z,90.44
2023-04-23T12:04:33.066Z,89.23
2023-04-23T12:07:00.625Z,88.98
2023-04-23T12:09:29.562Z,87.09
2023-04-23T12:11:58.670Z,87.21
2023-04-23T12:14:31.232Z,87.73
2023-04-23T12:16:59.628Z,86.81
2023-04-23T12:19:28.948Z,84.53
2023-04-23T12:22:03.604Z,84.55
2023-04-23T12:24:44.658Z,84.79
2023-04-23T12:27:15.895Z,84.27
2023-04-23T12:29:47.435Z,84.06
2023-04-23T12:32:15.659Z,81.67
2023-04-23T12:34:53.529Z,81.26
2023-04-23T12:37:38.987Z,80.55
2023-04-23T12:40:07.401Z,80.60
2023-04-23T12:42:35.461Z,80.06
2023-04-23T12:45:10.077Z,80.31
2023-04-23T12:47:37.422Z,80.86
2023-04-23T12:50:05.680Z,79.89
2023-04-23T12:52:33.158Z,80.98
2023-04-23T12:55:01.388Z,80.76
2023-04-23T12:57:29.112Z,80.72
2023-04-23T12:59:56.546Z,80.65
2023-04-23T13:02:25.737Z,80.23
2023-04-23T13:04:59.621Z,79.71
2023-04-23T13:07:27.039Z,79.34
2023-04-23T13:09:54.299Z,78.01
2023-04-23T13:12:21.607Z,76.98
2023-04-23T13:14:48.969Z,76.32
2023-04-23T13:17:16.443Z,76.56
2023-04-23T13:19:44.931Z,75.76
2023-04-23T13:22:12.287Z,76.80
2023-04-23T13:24:39.537Z,77.28
2023-04-23T13:27:07.255Z,77.98
2023-04-23T13:29:34.739Z,77.50
2023-04-23T13:32:02.156Z,77.32
2023-04-23T13:34:30.875Z,75.92
2023-04-23T13:37:05.535Z,74.76
2023-04-23T13:39:33.348Z,73.34
2023-04-23T13:42:09.029Z,73.79
2023-04-23T13:44:37.107Z,72.92
2023-04-23T13:47:04.562Z,71.81
2023-04-23T13:49:31.804Z,73.53
2023-04-23T13:52:04.163Z,72.40
2023-04-23T13:54:31.569Z,71.99
2023-04-23T13:56:59.048Z,70.49
2023-04-23T13:59:26.359Z,70.25
2023-04-23T14:01:53.782Z,70.21
2023-04-23T14:04:26.970Z,69.83
2023-04-23T14:06:54.541Z,69.03
2023-04-23T14:09:22.585Z,67.93
2023-04-23T14:11:49.992Z,67.03
2023-04-23T14:14:18.181Z,66.14
2023-04-23T14:16:45.502Z,66.41
2023-04-23T14:19:12.781Z,66.96
2023-04-23T14:21:40.747Z,66.55
2023-04-23T14:24:10.495Z,66.27
2023-04-23T14:29:42.233Z,67.22
2023-04-23T14:32:09.666Z,67.66
2023-04-23T14:34:36.910Z,67.72
2023-04-23T14:37:04.384Z,66.04
2023-04-23T14:39:31.939Z,65.48
2023-04-23T14:41:59.104Z,65.45
2023-04-23T14:44:27.072Z,65.43
2023-04-23T14:46:55.058Z,64.43
2023-04-23T14:49:22.342Z,65.11
2023-04-23T14:51:50.998Z,65.05
2023-04-23T14:54:19.522Z,64.45
2023-04-23T14:56:47.036Z,64.41
2023-04-23T14:59:14.384Z,63.70
2023-04-23T15:01:41.767Z,63.20
2023-04-23T15:04:10.773Z,62.60
2023-04-23T15:06:40.432Z,64.35
2023-04-23T15:09:10.742Z,62.62
2023-04-23T15:11:38.938Z,63.36
2023-04-23T15:14:23.089Z,62.13
2023-04-23T15:16:50.626Z,61.52
2023-04-23T15:19:18.580Z,61.82
2023-04-23T15:21:46.948Z,61.97
2023-04-23T15:24:15.347Z,61.95
2023-04-23T15:26:43.295Z,61.33
2023-04-23T15:29:10.907Z,61.63
2023-04-23T15:31:38.849Z,60.83
2023-04-23T15:34:08.653Z,59.47
2023-04-23T15:36:37.595Z,59.74
2023-04-23T15:39:06.443Z,59.77
2023-04-23T15:41:36.677Z,59.78
2023-04-23T15:44:06.381Z,60.65
2023-04-23T15:46:33.702Z,60.00
2023-04-23T15:49:01.068Z,60.52
2023-04-23T15:51:28.636Z,59.96
2023-04-23T15:53:55.880Z,60.39
2023-04-23T15:56:23.075Z,59.39
2023-04-23T15:58:50.455Z,59.71
2023-04-23T16:01:17.685Z,59.15
2023-04-23T16:03:57.568Z,60.33
2023-04-23T16:06:32.280Z,65.18
2023-04-23T16:08:59.655Z,69.52
2023-04-23T16:11:28.349Z,72.79
2023-04-23T16:13:57.055Z,73.14
2023-04-23T16:16:24.425Z,73.00
2023-04-23T16:18:51.705Z,72.61
2023-04-23T16:21:18.980Z,74.28
2023-04-23T16:23:46.316Z,74.35
2023-04-23T16:26:13.842Z,74.64
2023-04-23T16:28:41.118Z,75.37
2023-04-23T16:31:08.600Z,74.85
2023-04-23T16:33:36.355Z,75.23
2023-04-23T16:36:03.944Z,74.91
2023-04-23T16:38:32.526Z,74.99
2023-04-23T16:40:59.877Z,74.34
2023-04-23T16:43:27.487Z,74.16
2023-04-23T16:45:54.880Z,73.81
2023-04-23T16:48:22.232Z,73.77
2023-04-23T16:50:49.592Z,73.14
2023-04-23T16:53:17.573Z,73.51
2023-04-23T16:55:44.813Z,73.98
2023-04-23T16:58:12.179Z,75.49
2023-04-23T17:00:39.555Z,76.15
2023-04-23T17:03:07.028Z,75.51
2023-04-23T17:05:35.046Z,74.37
2023-04-23T17:08:02.412Z,74.10
2023-04-23T17:10:29.620Z,73.40
2023-04-23T17:12:56.970Z,72.97
2023-04-23T17:15:24.321Z,72.03
2023-04-23T17:17:52.964Z,70.95
2023-04-23T17:20:20.298Z,71.43
2023-04-23T17:22:47.617Z,71.58
2023-04-23T17:25:14.865Z,71.30
2023-04-23T17:27:42.321Z,70.73
2023-04-23T17:30:10.075Z,71.22
2023-04-23T17:32:37.623Z,70.97
2023-04-23T17:35:12.760Z,71.60
2023-04-23T17:37:40.407Z,71.58
2023-04-23T17:40:09.702Z,71.85
2023-04-23T17:42:36.987Z,71.79
2023-04-23T17:45:06.009Z,71.78
2023-04-23T17:47:33.487Z,72.08
2023-04-23T17:50:00.865Z,71.65
2023-04-23T17:52:28.138Z,71.71
2023-04-23T17:54:56.791Z,71.87
2023-04-23T17:57:24.314Z,71.74
2023-04-23T17:59:51.521Z,72.78
2023-04-23T18:02:18.940Z,72.34
2023-04-23T18:04:46.202Z,73.08
2023-04-23T18:07:13.504Z,73.83
2023-04-23T18:09:40.785Z,73.45
2023-04-23T18:12:08.013Z,76.20
2023-04-23T18:14:35.426Z,84.15
2023-04-23T18:17:03.585Z,90.20
2023-04-23T18:19:30.968Z,93.56
2023-04-23T18:22:02.093Z,96.64
2023-04-23T18:24:29.466Z,98.66
2023-04-23T18:26:58.581Z,98.13
2023-04-23T18:29:26.198Z,98.64
2023-04-23T18:31:53.790Z,97.31
2023-04-23T18:34:23.986Z,97.95
2023-04-23T18:36:54.945Z,96.58
2023-04-23T18:39:22.540Z,95.56
2023-04-23T18:41:50.432Z,95.88
2023-04-23T18:44:18.240Z,95.87
2023-04-23T18:46:46.575Z,94.70
2023-04-23T18:49:39.752Z,93.40
2023-04-23T18:52:07.455Z,91.52
2023-04-23T18:54:35.346Z,90.07
2023-04-23T18:57:03.264Z,91.46
2023-04-23T18:59:34.988Z,92.80
2023-04-23T19:02:03.828Z,91.55
2023-04-23T19:04:32.463Z,89.36
2023-04-23T19:07:00.519Z,90.30
2023-04-23T19:09:27.845Z,92.11
2023-04-23T19:11:55.337Z,91.58
2023-04-23T19:14:22.570Z,91.27
2023-04-23T19:16:52.777Z,92.25
2023-04-23T19:19:19.895Z,93.39
2023-04-23T19:21:47.060Z,93.51
2023-04-23T19:24:14.269Z,92.69
2023-04-23T19:26:41.542Z,91.32
2023-04-23T19:29:08.758Z,92.80
2023-04-23T19:31:36.399Z,93.26
2023-04-23T19:34:03.815Z,92.91
2023-04-23T19:36:31.076Z,91.82
2023-04-23T19:38:58.456Z,91.42
2023-04-23T19:41:26.186Z,92.43
2023-04-23T19:43:53.480Z,93.57
2023-04-23T19:46:21.161Z,92.42
2023-04-23T19:48:48.384Z,92.73
2023-04-23T19:51:15.813Z,92.32
2023-04-23T19:53:43.116Z,89.96
2023-04-23T19:56:13.153Z,90.08
2023-04-23T19:58:40.632Z,92.31
2023-04-23T20:01:08.020Z,92.26
2023-04-23T20:03:35.649Z,92.21
2023-04-23T20:06:02.975Z,92.75
2023-04-23T20:08:41.512Z,92.41
2023-04-23T20:11:10.518Z,93.48
2023-04-23T20:13:37.890Z,93.25
2023-04-23T20:16:05.180Z,92.00
2023-04-23T20:18:35.564Z,91.26
2023-04-23T20:21:02.991Z,91.82
2023-04-23T20:23:30.193Z,91.73
2023-04-23T20:25:57.407Z,91.34
2023-04-23T20:28:24.692Z,89.66
2023-04-23T20:30:51.913Z,88.71
2023-04-23T20:33:19.645Z,87.80
2023-04-23T20:35:47.703Z,88.25
2023-04-23T20:38:19.121Z,86.64
2023-04-23T20:40:47.801Z,84.30
2023-04-23T20:43:15.199Z,83.73
2023-04-23T20:45:43.177Z,83.30
2023-04-23T20:48:10.613Z,82.55
2023-04-23T20:50:37.911Z,82.17
2023-04-23T20:53:05.575Z,82.59
2023-04-23T20:55:33.039Z,83.11
2023-04-23T20:58:00.507Z,83.04
2023-04-23T21:00:27.986Z,83.40
2023-04-23T21:02:55.551Z,83.04
2023-04-23T21:05:22.901Z,82.98
2023-04-23T21:07:50.775Z,82.35
2023-04-23T21:10:18.080Z,82.22
2023-04-23T21:12:46.010Z,82.57
2023-04-23T21:15:15.214Z,81.63
2023-04-23T21:17:42.712Z,80.42
2023-04-23T21:20:10.352Z,80.47
2023-04-23T21:22:37.637Z,79.38
2023-04-23T21:25:05.389Z,75.00
2023-04-23T21:27:32.858Z,74.60
2023-04-23T21:30:07.444Z,76.07
2023-04-23T21:32:34.938Z,76.23
2023-04-23T21:35:02.192Z,76.31
2023-04-23T21:37:29.474Z,76.59
2023-04-23T21:39:56.743Z,76.46
2023-04-23T21:42:24.126Z,76.14
2023-04-23T21:44:51.426Z,75.09
2023-04-23T21:47:18.609Z,75.14
2023-04-23T21:49:46.352Z,76.81
2023-04-23T21:52:14.402Z,74.79
2023-04-23T21:54:41.587Z,75.70
2023-04-23T21:57:08.863Z,75.31
2023-04-23T21:59:36.357Z,75.20
2023-04-23T22:02:04.000Z,75.26
2023-04-23T22:04:31.449Z,74.73
2023-04-23T22:07:03.584Z,73.99
2023-04-23T22:09:31.165Z,75.22
2023-04-23T22:12:02.330Z,74.62
2023-04-23T22:14:30.104Z,76.34
2023-04-23T22:16:58.935Z,73.65
2023-04-23T22:19:26.317Z,74.66
2023-04-23T22:21:54.537Z,74.93
2023-04-23T22:24:22.332Z,74.84
2023-04-23T22:26:49.734Z,74.98
2023-04-23T22:29:17.004Z,76.62
2023-04-23T22:31:44.412Z,75.31
2023-04-23T22:34:11.704Z,75.92
2023-04-23T22:36:40.572Z,75.91
2023-04-23T22:39:07.866Z,75.80
2023-04-23T22:41:38.717Z,77.26
2023-04-23T22:44:06.632Z,76.18
2023-04-23T22:46:34.144Z,75.70
2023-04-23T22:49:02.747Z,77.08
2023-04-23T22:51:33.389Z,77.08
2023-04-23T22:54:00.725Z,77.80
2023-04-23T22:56:27.935Z,78.33
2023-04-23T22:58:55.261Z,78.22
2023-04-23T23:01:22.499Z,77.95
2023-04-23T23:03:49.881Z,76.82
2023-04-23T23:06:17.801Z,77.36
2023-04-23T23:08:45.072Z,77.27
2023-04-23T23:11:12.282Z,76.79
2023-04-23T23:13:40.618Z,77.63
2023-04-23T23:16:08.044Z,77.30
2023-04-23T23:18:35.552Z,77.33
2023-04-23T23:21:03.122Z,78.28
2023-04-23T23:23:30.515Z,77.66
2023-04-23T23:25:59.443Z,77.55
2023-04-23T23:28:27.516Z,78.20
2023-04-23T23:30:55.559Z,78.54
2023-04-23T23:33:23.392Z,77.91
2023-04-23T23:35:50.835Z,78.52
2023-04-23T23:38:18.093Z,78.06
2023-04-23T23:40:45.349Z,78.18
2023-04-23T23:43:12.670Z,78.18
2023-04-23T23:45:40.035Z,78.63
2023-04-23T23:48:07.479Z,78.68
2023-04-23T23:50:34.881Z,78.65
2023-04-23T23:53:02.396Z,78.83
2023-04-23T23:55:29.671Z,79.60
2023-04-23T23:57:56.892Z,79.76
